Time;durP1;ratioP1;P1;durP2;ratioP2;P2;SDS_P1;SDS_P2;PMS_P1;PMS_P2;Temp;Humidity;BMP_temperature;BMP_pressure;BME280_temperature;BME280_humidity;BME280_pressure;Samples;Min_cycle;Max_cycle;Signal;HPM_P1;HPM_P2
2024/04/13 00:00:20;;;;;;;2.53;1.30;;;;;;;;;;5011451;28;20030;-78
2024/04/13 00:02:46;;;;;;;1.05;1.05;;;;;;;;;;4993200;28;20467;-78
2024/04/13 00:05:12;;;;;;;1.10;1.10;;;;;;;;;;5009758;28;20037;-78
2024/04/13 00:07:38;;;;;;;1.10;1.10;;;;;;;;;;5011576;28;20619;-78
2024/04/13 00:10:04;;;;;;;1.50;1.30;;;;;;;;;;5010014;28;20065;-77
2024/04/13 00:12:32;;;;;;;1.00;1.00;;;;;;;;;;5010971;28;20034;-78
2024/04/13 00:14:58;;;;;;;1.10;1.10;;;;;;;;;;5009303;28;20038;-77
2024/04/13 00:17:24;;;;;;;1.10;1.10;;;;;;;;;;5008951;28;20123;-76
2024/04/13 00:19:50;;;;;;;1.40;1.20;;;;;;;;;;5011685;28;20022;-78
2024/04/13 00:22:19;;;;;;;1.20;1.20;;;;;;;;;;5008170;28;20037;-77
2024/04/13 00:24:45;;;;;;;1.38;1.30;;;;;;;;;;5009631;28;20109;-77
2024/04/13 00:27:11;;;;;;;1.00;1.00;;;;;;;;;;5009879;28;20161;-78
2024/04/13 00:29:41;;;;;;;1.17;1.17;;;;;;;;;;4992537;28;20155;-77
2024/04/13 00:32:08;;;;;;;0.95;0.95;;;;;;;;;;5006796;28;20045;-77
2024/04/13 00:34:34;;;;;;;1.00;1.00;;;;;;;;;;5024949;28;20038;-77
2024/04/13 00:37:06;;;;;;;1.33;1.23;;;;;;;;;;5005589;28;20140;-76
2024/04/13 00:39:32;;;;;;;4.72;1.40;;;;;;;;;;5010184;28;20041;-79
2024/04/13 00:41:58;;;;;;;1.20;1.10;;;;;;;;;;5011063;28;20041;-79
2024/04/13 00:44:25;;;;;;;2.65;1.10;;;;;;;;;;5008869;28;20045;-77
2024/04/13 00:46:50;;;;;;;1.58;1.35;;;;;;;;;;4995209;28;20038;-78
2024/04/13 00:49:19;;;;;;;1.30;1.20;;;;;;;;;;5007550;28;20033;-77
2024/04/13 00:51:49;;;;;;;1.20;1.20;;;;;;;;;;5016148;28;20040;-77
2024/04/13 00:54:16;;;;;;;1.00;1.00;;;;;;;;;;5016264;28;20038;-77
2024/04/13 00:56:42;;;;;;;3.70;1.20;;;;;;;;;;4991971;28;20041;-77
2024/04/13 00:59:08;;;;;;;1.10;1.10;;;;;;;;;;5016391;28;20030;-78
2024/04/13 01:01:35;;;;;;;1.10;1.10;;;;;;;;;;5009983;28;20124;-77
2024/04/13 01:04:00;;;;;;;1.60;1.27;;;;;;;;;;4990786;28;20034;-77
2024/04/13 01:06:28;;;;;;;1.83;1.27;;;;;;;;;;5008769;28;20037;-77
2024/04/13 01:08:54;;;;;;;1.42;1.33;;;;;;;;;;5007705;28;20037;-76
2024/04/13 01:11:21;;;;;;;7.25;1.60;;;;;;;;;;4984534;28;20034;-76
2024/04/13 01:13:47;;;;;;;0.90;0.90;;;;;;;;;;5006642;28;20540;-77
2024/04/13 01:16:14;;;;;;;2.40;1.15;;;;;;;;;;5009334;28;20072;-76
2024/04/13 01:18:40;;;;;;;2.35;1.30;;;;;;;;;;5009041;28;20029;-76
2024/04/13 01:21:06;;;;;;;1.25;1.15;;;;;;;;;;5009015;28;20514;-76
2024/04/13 01:23:32;;;;;;;1.40;1.20;;;;;;;;;;5007827;28;20037;-76
2024/04/13 01:25:58;;;;;;;4.55;1.30;;;;;;;;;;5007633;28;20026;-77
2024/04/13 01:28:25;;;;;;;2.15;1.00;;;;;;;;;;4968907;28;20521;-76
2024/04/13 01:30:52;;;;;;;2.05;1.17;;;;;;;;;;5008468;28;20054;-77
2024/04/13 01:33:19;;;;;;;2.28;1.27;;;;;;;;;;5006526;28;20042;-77
2024/04/13 01:35:45;;;;;;;1.30;1.20;;;;;;;;;;5009286;28;20613;-77
2024/04/13 01:38:11;;;;;;;1.10;1.00;;;;;;;;;;5010462;28;20102;-77
2024/04/13 01:40:37;;;;;;;1.23;1.20;;;;;;;;;;4992456;28;20030;-77
2024/04/13 01:43:02;;;;;;;1.65;1.30;;;;;;;;;;5008411;28;20038;-77
2024/04/13 01:45:29;;;;;;;1.85;1.15;;;;;;;;;;5008426;28;20068;-75
2024/04/13 01:47:55;;;;;;;1.50;1.40;;;;;;;;;;5008977;28;20037;-76
2024/04/13 01:50:20;;;;;;;1.60;1.13;;;;;;;;;;5009176;28;20048;-77
2024/04/13 01:52:46;;;;;;;1.02;1.02;;;;;;;;;;5007160;28;20041;-77
2024/04/13 01:55:12;;;;;;;2.50;1.10;;;;;;;;;;5007272;28;20026;-76
2024/04/13 01:57:38;;;;;;;1.48;1.10;;;;;;;;;;5007050;28;20153;-77
2024/04/13 02:00:04;;;;;;;1.20;1.10;;;;;;;;;;5012348;28;20121;-75
2024/04/13 02:02:32;;;;;;;1.10;1.10;;;;;;;;;;5011066;28;20026;-77
2024/04/13 02:04:58;;;;;;;3.83;1.33;;;;;;;;;;5013265;28;20041;-77
2024/04/13 02:07:24;;;;;;;0.85;0.85;;;;;;;;;;5012007;28;20498;-76
2024/04/13 02:09:50;;;;;;;1.85;1.40;;;;;;;;;;5011831;28;20096;-78
2024/04/13 02:12:17;;;;;;;1.40;1.17;;;;;;;;;;5012324;28;20124;-78
2024/04/13 02:14:43;;;;;;;2.25;0.98;;;;;;;;;;4993718;28;20427;-76
2024/04/13 02:17:09;;;;;;;1.20;1.10;;;;;;;;;;5013084;28;20046;-76
2024/04/13 02:19:35;;;;;;;1.05;1.00;;;;;;;;;;5012174;28;20033;-79
2024/04/13 02:22:02;;;;;;;0.93;0.93;;;;;;;;;;5012810;28;20037;-77
2024/04/13 02:24:30;;;;;;;1.00;1.00;;;;;;;;;;5012876;28;20050;-77
2024/04/13 02:26:57;;;;;;;1.15;1.05;;;;;;;;;;5014232;28;20197;-78
2024/04/13 02:29:25;;;;;;;1.40;1.30;;;;;;;;;;5015907;28;20050;-76
2024/04/13 02:31:51;;;;;;;1.50;1.40;;;;;;;;;;5017158;28;20034;-77
2024/04/13 02:34:18;;;;;;;2.60;1.20;;;;;;;;;;5011492;28;20449;-77
2024/04/13 02:36:44;;;;;;;1.27;1.20;;;;;;;;;;5011409;28;20041;-75
2024/04/13 02:39:10;;;;;;;1.63;1.45;;;;;;;;;;5010726;28;20414;-76
2024/04/13 02:41:36;;;;;;;3.15;1.25;;;;;;;;;;4994305;28;20033;-76
2024/04/13 02:44:02;;;;;;;1.38;1.27;;;;;;;;;;5010746;28;20052;-77
2024/04/13 02:46:28;;;;;;;1.35;1.30;;;;;;;;;;5010184;28;20042;-76
2024/04/13 02:48:54;;;;;;;1.92;1.20;;;;;;;;;;5012741;28;20037;-76
2024/04/13 02:51:20;;;;;;;1.63;1.50;;;;;;;;;;5008569;28;20042;-77
2024/04/13 02:53:46;;;;;;;2.88;1.30;;;;;;;;;;5010572;28;20057;-76
2024/04/13 02:56:12;;;;;;;1.83;1.73;;;;;;;;;;5010188;28;20046;-76
2024/04/13 02:58:37;;;;;;;2.10;1.58;;;;;;;;;;5010239;28;20087;-77
2024/04/13 03:01:04;;;;;;;2.00;1.60;;;;;;;;;;5008319;28;20026;-76
2024/04/13 03:03:30;;;;;;;1.33;1.30;;;;;;;;;;5009613;28;20544;-76
2024/04/13 03:06:00;;;;;;;3.67;1.50;;;;;;;;;;5008886;28;20045;-76
2024/04/13 03:08:26;;;;;;;1.75;1.35;;;;;;;;;;5010830;28;20034;-75
2024/04/13 03:10:53;;;;;;;1.65;1.30;;;;;;;;;;5009936;28;20051;-75
2024/04/13 03:13:19;;;;;;;1.70;1.60;;;;;;;;;;5009824;28;20041;-75
2024/04/13 03:15:44;;;;;;;2.28;1.48;;;;;;;;;;5011360;28;20029;-76
2024/04/13 03:18:11;;;;;;;1.52;1.45;;;;;;;;;;4994109;28;20045;-75
2024/04/13 03:20:37;;;;;;;1.60;1.50;;;;;;;;;;5010594;28;20034;-78
2024/04/13 03:23:04;;;;;;;1.63;1.50;;;;;;;;;;5010798;28;20057;-77
2024/04/13 03:25:30;;;;;;;1.73;1.50;;;;;;;;;;5009702;28;20407;-78
2024/04/13 03:27:56;;;;;;;2.60;1.50;;;;;;;;;;4994654;28;20061;-78
2024/04/13 03:30:21;;;;;;;1.50;1.40;;;;;;;;;;5011742;28;20553;-78
2024/04/13 03:32:47;;;;;;;1.70;1.50;;;;;;;;;;5009190;28;20033;-78
2024/04/13 03:35:13;;;;;;;1.30;1.30;;;;;;;;;;5010097;28;20036;-78
2024/04/13 03:37:39;;;;;;;1.45;1.33;;;;;;;;;;5012031;28;20072;-78
2024/04/13 03:40:05;;;;;;;1.52;1.42;;;;;;;;;;5012633;28;20052;-79
2024/04/13 03:42:32;;;;;;;1.33;1.30;;;;;;;;;;4995957;28;20060;-79
2024/04/13 03:44:58;;;;;;;1.67;1.58;;;;;;;;;;5010571;28;20580;-79
2024/04/13 03:47:24;;;;;;;3.70;1.75;;;;;;;;;;5012335;28;20054;-78
2024/04/13 03:49:50;;;;;;;1.60;1.50;;;;;;;;;;5009939;28;20505;-79
2024/04/13 03:52:17;;;;;;;1.50;1.40;;;;;;;;;;5012494;28;20079;-77
2024/04/13 03:54:43;;;;;;;2.78;1.50;;;;;;;;;;5007377;28;20057;-79
2024/04/13 03:57:09;;;;;;;1.60;1.52;;;;;;;;;;4994416;28;20046;-79
2024/04/13 03:59:35;;;;;;;3.38;1.67;;;;;;;;;;5012114;28;20087;-80
2024/04/13 04:02:01;;;;;;;1.35;1.30;;;;;;;;;;4994451;28;20038;-79
2024/04/13 04:04:27;;;;;;;1.50;1.40;;;;;;;;;;5012027;28;20610;-79
2024/04/13 04:06:54;;;;;;;1.50;1.40;;;;;;;;;;5009305;28;20089;-81
2024/04/13 04:09:20;;;;;;;1.60;1.50;;;;;;;;;;5007030;28;20088;-76
2024/04/13 04:11:50;;;;;;;1.65;1.55;;;;;;;;;;5008516;28;20036;-77
2024/04/13 04:14:15;;;;;;;1.63;1.48;;;;;;;;;;5008886;28;20034;-77
2024/04/13 04:16:41;;;;;;;3.20;1.75;;;;;;;;;;5009674;28;20136;-77
2024/04/13 04:19:08;;;;;;;7.18;1.73;;;;;;;;;;5009725;28;20054;-76
2024/04/13 04:21:34;;;;;;;1.65;1.63;;;;;;;;;;5009175;28;20034;-75
2024/04/13 04:24:00;;;;;;;3.08;1.77;;;;;;;;;;5008719;28;20583;-75
2024/04/13 04:26:26;;;;;;;1.65;1.45;;;;;;;;;;5008320;28;20665;-74
2024/04/13 04:28:51;;;;;;;1.70;1.60;;;;;;;;;;5008029;28;20493;-75
2024/04/13 04:31:17;;;;;;;1.60;1.52;;;;;;;;;;5009576;28;20748;-75
2024/04/13 04:33:52;;;;;;;1.30;1.20;;;;;;;;;;5008618;28;20038;-75
2024/04/13 04:36:19;;;;;;;1.52;1.38;;;;;;;;;;5007950;28;20034;-75
2024/04/13 04:38:46;;;;;;;1.27;1.27;;;;;;;;;;5010486;28;20037;-74
2024/04/13 04:41:14;;;;;;;1.70;1.50;;;;;;;;;;5008371;28;20080;-75
2024/04/13 04:43:40;;;;;;;1.60;1.50;;;;;;;;;;5008645;28;20045;-75
2024/04/13 04:46:09;;;;;;;1.20;1.10;;;;;;;;;;4979000;28;20108;-73
2024/04/13 04:48:35;;;;;;;1.65;1.50;;;;;;;;;;5014612;28;20052;-76
2024/04/13 04:51:02;;;;;;;2.45;1.40;;;;;;;;;;5007858;28;20414;-77
2024/04/13 04:53:28;;;;;;;1.67;1.55;;;;;;;;;;5006871;28;20137;-77
2024/04/13 04:55:54;;;;;;;2.90;1.50;;;;;;;;;;5012334;28;20524;-77
2024/04/13 04:58:20;;;;;;;1.52;1.40;;;;;;;;;;5007955;28;20080;-75
2024/04/13 05:00:46;;;;;;;1.55;1.30;;;;;;;;;;5010919;28;20057;-75
2024/04/13 05:03:11;;;;;;;2.05;1.38;;;;;;;;;;5007640;28;20046;-75
2024/04/13 05:05:37;;;;;;;1.08;1.08;;;;;;;;;;5006363;28;20029;-75
2024/04/13 05:08:03;;;;;;;1.45;1.35;;;;;;;;;;5005995;28;20076;-76
2024/04/13 05:10:29;;;;;;;1.90;1.00;;;;;;;;;;5016909;28;20038;-76
2024/04/13 05:12:55;;;;;;;1.73;1.58;;;;;;;;;;5006156;28;20048;-76
2024/04/13 05:15:21;;;;;;;4.80;1.85;;;;;;;;;;5007382;28;20042;-76
2024/04/13 05:17:47;;;;;;;2.33;1.83;;;;;;;;;;5009001;28;20050;-76
2024/04/13 05:20:13;;;;;;;3.22;2.00;;;;;;;;;;5008777;28;20092;-76
2024/04/13 05:22:39;;;;;;;2.45;2.25;;;;;;;;;;5007840;28;20469;-74
2024/04/13 05:25:06;;;;;;;2.53;1.77;;;;;;;;;;5010160;28;20034;-75
2024/04/13 05:27:32;;;;;;;5.38;1.35;;;;;;;;;;5007169;28;20506;-76
2024/04/13 05:30:02;;;;;;;5.35;1.45;;;;;;;;;;5007008;28;20081;-75
2024/04/13 05:32:31;;;;;;;1.52;1.40;;;;;;;;;;5003166;28;20069;-75
2024/04/13 05:35:00;;;;;;;3.75;1.67;;;;;;;;;;4997246;28;20038;-75
2024/04/13 05:37:26;;;;;;;2.33;1.80;;;;;;;;;;5011488;28;20046;-82
2024/04/13 05:39:51;;;;;;;3.72;1.70;;;;;;;;;;5018454;28;20014;-85
2024/04/13 05:42:17;;;;;;;6.22;2.00;;;;;;;;;;5023561;28;20053;-84
2024/04/13 05:44:43;;;;;;;1.88;1.77;;;;;;;;;;5023476;28;20049;-82
2024/04/13 05:47:09;;;;;;;3.80;1.70;;;;;;;;;;5010498;28;20125;-81
2024/04/13 05:49:35;;;;;;;2.80;1.92;;;;;;;;;;4992309;28;20033;-83
2024/04/13 05:52:01;;;;;;;1.83;1.73;;;;;;;;;;5017164;28;20457;-81
2024/04/13 05:54:27;;;;;;;2.70;1.70;;;;;;;;;;5023151;28;20054;-82
2024/04/13 05:56:53;;;;;;;1.55;1.55;;;;;;;;;;5023544;28;20048;-82
2024/04/13 05:59:19;;;;;;;2.38;1.80;;;;;;;;;;5019696;28;20040;-81
2024/04/13 06:01:45;;;;;;;2.58;1.60;;;;;;;;;;5024546;28;20034;-81
2024/04/13 06:04:11;;;;;;;2.80;1.95;;;;;;;;;;5016889;28;20046;-82
2024/04/13 06:06:37;;;;;;;2.85;2.10;;;;;;;;;;5018840;28;20025;-83
2024/04/13 06:09:03;;;;;;;2.00;1.80;;;;;;;;;;5023951;28;20048;-83
2024/04/13 06:11:28;;;;;;;1.90;1.80;;;;;;;;;;5022515;28;20042;-82
2024/04/13 06:13:54;;;;;;;1.70;1.60;;;;;;;;;;5011493;28;20079;-81
2024/04/13 06:16:23;;;;;;;3.30;2.30;;;;;;;;;;4985708;28;20569;-79
2024/04/13 06:18:55;;;;;;;4.35;2.00;;;;;;;;;;4999215;28;20502;-80
2024/04/13 06:21:21;;;;;;;5.15;2.08;;;;;;;;;;5002861;28;20041;-81
2024/04/13 06:23:48;;;;;;;2.08;1.60;;;;;;;;;;5003142;28;20046;-82
2024/04/13 06:26:14;;;;;;;2.13;1.50;;;;;;;;;;4980132;28;20026;-81
2024/04/13 06:28:40;;;;;;;2.97;1.75;;;;;;;;;;5008098;28;20114;-82
2024/04/13 06:31:06;;;;;;;6.80;1.90;;;;;;;;;;5032139;28;20066;-84
2024/04/13 06:33:35;;;;;;;5.40;2.25;;;;;;;;;;5143434;23;20047;-84
2024/04/13 06:36:01;;;;;;;5.22;2.50;;;;;;;;;;4969983;28;20038;-83
2024/04/13 06:38:27;;;;;;;4.00;2.40;;;;;;;;;;4961263;28;20016;-84
2024/04/13 06:40:54;;;;;;;7.78;2.40;;;;;;;;;;4971650;28;20023;-84
2024/04/13 06:43:19;;;;;;;6.07;2.17;;;;;;;;;;4974969;28;20051;-85
2024/04/13 06:45:49;;;;;;;2.38;2.13;;;;;;;;;;4977688;28;20054;-82
2024/04/13 06:48:15;;;;;;;3.03;2.00;;;;;;;;;;4987692;28;20027;-82
2024/04/13 06:50:41;;;;;;;3.70;2.35;;;;;;;;;;4975615;28;20026;-84
2024/04/13 06:53:07;;;;;;;2.85;1.88;;;;;;;;;;4983845;28;20029;-82
2024/04/13 06:55:33;;;;;;;3.50;2.08;;;;;;;;;;4965489;28;20051;-85
2024/04/13 06:57:59;;;;;;;1.80;1.70;;;;;;;;;;4982691;28;20053;-84
2024/04/13 07:00:25;;;;;;;8.43;1.80;;;;;;;;;;4963223;28;20102;-82
2024/04/13 07:02:51;;;;;;;4.82;2.25;;;;;;;;;;4978586;28;20036;-85
2024/04/13 07:05:16;;;;;;;2.55;2.13;;;;;;;;;;4961762;29;20091;-82
2024/04/13 07:07:42;;;;;;;5.70;1.95;;;;;;;;;;4962124;28;20019;-85
2024/04/13 07:10:08;;;;;;;8.05;2.25;;;;;;;;;;4977759;29;20039;-82
2024/04/13 07:12:34;;;;;;;1.77;1.70;;;;;;;;;;4962402;29;20027;-83
2024/04/13 07:15:00;;;;;;;3.90;1.70;;;;;;;;;;4978575;28;20015;-83
2024/04/13 07:17:26;;;;;;;4.15;1.70;;;;;;;;;;4956891;29;20051;-80
2024/04/13 07:19:51;;;;;;;5.20;1.95;;;;;;;;;;4963139;28;20031;-83
2024/04/13 07:22:17;;;;;;;3.00;1.92;;;;;;;;;;4979378;28;20053;-83
2024/04/13 07:24:43;;;;;;;2.15;1.90;;;;;;;;;;4958855;28;20050;-84
2024/04/13 07:27:09;;;;;;;5.70;1.92;;;;;;;;;;4963023;28;20054;-83
2024/04/13 07:29:35;;;;;;;3.88;1.85;;;;;;;;;;4963010;28;20067;-85
2024/04/13 07:32:00;;;;;;;3.72;1.92;;;;;;;;;;4962328;29;20035;-79
2024/04/13 07:34:26;;;;;;;2.53;2.33;;;;;;;;;;4959801;28;20053;-81
2024/04/13 07:36:52;;;;;;;7.28;2.17;;;;;;;;;;4945863;29;20043;-86
2024/04/13 07:39:18;;;;;;;4.68;2.15;;;;;;;;;;4962701;28;20442;-84
2024/04/13 07:41:44;;;;;;;1.83;1.73;;;;;;;;;;4958174;29;20023;-84
2024/04/13 07:44:10;;;;;;;3.20;1.92;;;;;;;;;;4972625;28;20054;-83
2024/04/13 07:46:36;;;;;;;2.42;2.22;;;;;;;;;;4975429;29;20054;-84
2024/04/13 07:49:02;;;;;;;2.90;2.40;;;;;;;;;;4941878;29;20004;-83
2024/04/13 07:51:27;;;;;;;5.72;2.47;;;;;;;;;;4967845;29;20039;-80
2024/04/13 07:53:53;;;;;;;2.50;2.30;;;;;;;;;;4961859;28;20058;-82
2024/04/13 07:56:19;;;;;;;2.58;2.13;;;;;;;;;;4977670;28;20098;-83
2024/04/13 07:58:45;;;;;;;8.60;2.25;;;;;;;;;;4977367;28;20047;-83
2024/04/13 08:01:11;;;;;;;4.35;2.53;;;;;;;;;;4978485;29;20059;-82
2024/04/13 08:03:37;;;;;;;2.55;1.80;;;;;;;;;;4979069;28;20071;-83
2024/04/13 08:06:03;;;;;;;4.88;2.28;;;;;;;;;;4960625;28;20040;-86
2024/04/13 08:08:28;;;;;;;3.10;2.50;;;;;;;;;;4978119;28;20042;-84
2024/04/13 08:10:54;;;;;;;3.83;2.25;;;;;;;;;;4977500;28;20026;-85
2024/04/13 08:13:20;;;;;;;5.40;2.33;;;;;;;;;;4976196;28;20030;-84
2024/04/13 08:15:46;;;;;;;5.43;2.05;;;;;;;;;;4977361;29;20031;-82
2024/04/13 08:18:12;;;;;;;5.63;2.17;;;;;;;;;;4978242;28;20035;-82
2024/04/13 08:20:39;;;;;;;7.85;2.67;;;;;;;;;;4962327;28;20067;-83
2024/04/13 08:23:05;;;;;;;2.22;2.13;;;;;;;;;;4977820;28;20023;-84
2024/04/13 08:25:31;;;;;;;3.67;2.38;;;;;;;;;;4979022;28;20108;-83
2024/04/13 08:27:57;;;;;;;2.72;1.90;;;;;;;;;;4962618;28;20027;-84
2024/04/13 08:30:23;;;;;;;4.80;2.45;;;;;;;;;;4979060;28;20358;-84
2024/04/13 08:32:49;;;;;;;4.72;2.22;;;;;;;;;;4971737;28;20039;-77
2024/04/13 08:35:15;;;;;;;3.15;2.03;;;;;;;;;;4977686;28;20034;-84
2024/04/13 08:37:41;;;;;;;4.68;1.90;;;;;;;;;;4978231;28;20061;-84
2024/04/13 08:40:10;;;;;;;4.55;2.22;;;;;;;;;;4977833;28;20019;-82
2024/04/13 08:42:38;;;;;;;6.07;2.05;;;;;;;;;;4946169;28;20988;-84
2024/04/13 08:45:04;;;;;;;5.68;2.20;;;;;;;;;;4946871;28;20086;-84
2024/04/13 08:47:31;;;;;;;4.30;2.10;;;;;;;;;;4977936;28;20026;-84
2024/04/13 08:49:58;;;;;;;2.53;2.08;;;;;;;;;;4978778;28;20034;-87
2024/04/13 08:52:24;;;;;;;7.88;1.75;;;;;;;;;;4945777;28;20023;-84
2024/04/13 08:54:50;;;;;;;4.95;1.75;;;;;;;;;;5390660;22;20031;-83
2024/04/13 08:57:24;;;;;;;2.60;2.20;;;;;;;;;;5283595;22;20020;31
2024/04/13 08:59:50;;;;;;;4.45;2.22;;;;;;;;;;5001047;28;20038;-84
2024/04/13 09:02:16;;;;;;;1.95;1.70;;;;;;;;;;5014179;28;20044;-84
2024/04/13 09:04:42;;;;;;;5.93;2.20;;;;;;;;;;4984951;28;20022;-85
2024/04/13 09:07:09;;;;;;;2.47;2.20;;;;;;;;;;5015185;28;20114;-83
2024/04/13 09:09:35;;;;;;;13.20;5.82;;;;;;;;;;4979436;28;20042;-84
2024/04/13 09:12:01;;;;;;;9.07;4.63;;;;;;;;;;4993351;28;20010;-84
2024/04/13 09:14:27;;;;;;;4.15;2.63;;;;;;;;;;4976421;28;20059;-83
2024/04/13 09:16:53;;;;;;;5.43;3.90;;;;;;;;;;5004129;28;20097;-84
2024/04/13 09:19:19;;;;;;;3.05;2.45;;;;;;;;;;4989954;28;20042;-84
2024/04/13 09:21:45;;;;;;;4.70;2.25;;;;;;;;;;4977938;28;20086;-84
2024/04/13 09:24:11;;;;;;;4.00;3.05;;;;;;;;;;4999648;28;20118;-82
2024/04/13 09:26:44;;;;;;;7.68;3.90;;;;;;;;;;4964404;28;20089;-85
2024/04/13 09:29:14;;;;;;;10.65;5.30;;;;;;;;;;5000632;28;20050;-85
2024/04/13 09:31:40;;;;;;;14.25;6.93;;;;;;;;;;5003408;28;20015;-84
2024/04/13 09:34:06;;;;;;;5.70;3.60;;;;;;;;;;4962945;29;20048;-82
2024/04/13 09:36:32;;;;;;;4.57;3.08;;;;;;;;;;4983967;28;20026;-85
2024/04/13 09:38:58;;;;;;;3.20;2.78;;;;;;;;;;4975331;28;20038;-83
2024/04/13 09:41:24;;;;;;;4.03;2.53;;;;;;;;;;5001768;28;20023;-83
2024/04/13 09:43:52;;;;;;;5.07;2.50;;;;;;;;;;4999498;28;20042;-83
2024/04/13 09:46:18;;;;;;;4.72;2.78;;;;;;;;;;4972443;28;20042;-84
2024/04/13 09:48:45;;;;;;;3.90;2.83;;;;;;;;;;4988931;28;20034;-83
2024/04/13 09:51:11;;;;;;;3.22;2.50;;;;;;;;;;5000987;28;20057;-83
2024/04/13 09:53:37;;;;;;;3.90;2.40;;;;;;;;;;5001287;28;20035;-84
2024/04/13 09:56:03;;;;;;;4.95;3.35;;;;;;;;;;4999904;28;20030;-84
2024/04/13 09:58:29;;;;;;;2.33;2.10;;;;;;;;;;5002932;28;20064;-82
2024/04/13 10:00:55;;;;;;;1.90;1.77;;;;;;;;;;5005760;28;20037;-85
2024/04/13 10:03:21;;;;;;;9.27;2.75;;;;;;;;;;4985673;28;20086;-84
2024/04/13 10:05:47;;;;;;;7.82;2.17;;;;;;;;;;5001618;28;20097;-82
2024/04/13 10:08:13;;;;;;;1.98;1.88;;;;;;;;;;5007247;28;20049;-83
2024/04/13 10:10:40;;;;;;;4.43;2.40;;;;;;;;;;4942394;28;20033;-85
2024/04/13 10:13:06;;;;;;;3.80;2.33;;;;;;;;;;4983904;28;20085;-81
2024/04/13 10:15:31;;;;;;;3.22;2.05;;;;;;;;;;4982985;28;20034;-84
2024/04/13 10:17:58;;;;;;;9.98;2.70;;;;;;;;;;4981981;28;20046;-87
2024/04/13 10:20:26;;;;;;;2.97;2.05;;;;;;;;;;4992307;28;20038;-84
2024/04/13 10:22:53;;;;;;;2.53;1.88;;;;;;;;;;5004948;28;20045;-85
2024/04/13 10:25:25;;;;;;;2.13;1.92;;;;;;;;;;5003562;28;20098;-85
2024/04/13 10:27:51;;;;;;;7.93;1.88;;;;;;;;;;4989981;28;20048;-84
2024/04/13 10:30:17;;;;;;;3.28;2.10;;;;;;;;;;5009976;28;20014;-83
2024/04/13 10:32:43;;;;;;;4.47;2.20;;;;;;;;;;5005644;28;20042;-81
2024/04/13 10:35:11;;;;;;;2.83;1.80;;;;;;;;;;5000123;28;20026;-82
2024/04/13 10:37:36;;;;;;;1.90;1.75;;;;;;;;;;4998212;28;20049;-83
2024/04/13 10:40:03;;;;;;;2.38;2.20;;;;;;;;;;4984887;28;20054;-83
2024/04/13 10:42:34;;;;;;;4.47;1.92;;;;;;;;;;4965449;28;20023;-83
2024/04/13 10:45:01;;;;;;;2.17;1.85;;;;;;;;;;4997999;28;20091;-82
2024/04/13 10:47:30;;;;;;;2.83;2.30;;;;;;;;;;4988473;28;20041;-84
2024/04/13 10:49:56;;;;;;;2.85;1.95;;;;;;;;;;5003519;28;20034;-83
2024/04/13 10:52:22;;;;;;;3.00;2.55;;;;;;;;;;4988943;28;20094;-84
2024/04/13 10:54:55;;;;;;;6.45;1.83;;;;;;;;;;5007276;28;20045;-82
2024/04/13 10:57:21;;;;;;;5.47;2.72;;;;;;;;;;4997205;28;20106;-81
2024/04/13 10:59:46;;;;;;;5.55;2.80;;;;;;;;;;5002721;28;20038;-80
2024/04/13 11:02:12;;;;;;;4.32;2.25;;;;;;;;;;4976024;28;20031;-84
2024/04/13 11:04:44;;;;;;;2.88;2.50;;;;;;;;;;5003609;28;20130;-85
2024/04/13 11:07:11;;;;;;;4.03;2.55;;;;;;;;;;5007439;28;20154;-84
2024/04/13 11:09:37;;;;;;;2.55;2.35;;;;;;;;;;4984205;28;20031;-83
2024/04/13 11:12:06;;;;;;;5.60;2.22;;;;;;;;;;4977131;28;20045;-85
2024/04/13 11:14:32;;;;;;;5.55;2.38;;;;;;;;;;4985156;28;20790;-84
2024/04/13 11:16:58;;;;;;;2.83;2.22;;;;;;;;;;5001810;28;20046;-86
2024/04/13 11:19:24;;;;;;;5.00;3.35;;;;;;;;;;4978846;28;20027;-86
2024/04/13 11:21:49;;;;;;;13.00;8.35;;;;;;;;;;4996540;28;20035;-85
2024/04/13 11:24:15;;;;;;;31.40;14.07;;;;;;;;;;4998917;28;20039;-86
2024/04/13 11:26:41;;;;;;;113.43;41.50;;;;;;;;;;5000784;28;20030;-85
2024/04/13 11:29:08;;;;;;;75.50;28.00;;;;;;;;;;4959416;29;20039;-82
2024/04/13 11:31:34;;;;;;;17.63;7.30;;;;;;;;;;4992480;28;20034;-86
2024/04/13 11:36:46;;;;;;;15.07;7.55;;;;;;;;;;5013634;28;20074;-83
2024/04/13 11:39:12;;;;;;;11.80;5.90;;;;;;;;;;5007814;28;20007;-84
2024/04/13 11:41:38;;;;;;;6.82;3.03;;;;;;;;;;4987163;28;20086;-84
2024/04/13 11:44:04;;;;;;;7.80;5.55;;;;;;;;;;5004225;28;20042;-85
2024/04/13 11:46:30;;;;;;;3.25;2.95;;;;;;;;;;4988525;28;20127;-85
2024/04/13 11:48:55;;;;;;;3.28;2.97;;;;;;;;;;4994381;28;20021;-85
2024/04/13 11:51:21;;;;;;;8.95;3.58;;;;;;;;;;5002407;28;20038;-84
2024/04/13 11:53:47;;;;;;;5.47;2.35;;;;;;;;;;4998040;28;20062;-82
2024/04/13 11:56:13;;;;;;;6.20;2.28;;;;;;;;;;4993020;28;20038;-85
2024/04/13 11:58:48;;;;;;;2.75;2.50;;;;;;;;;;4985824;28;20519;-83
2024/04/13 12:01:21;;;;;;;5.43;2.97;;;;;;;;;;5002313;28;20051;-85
2024/04/13 12:03:46;;;;;;;4.15;3.50;;;;;;;;;;4986749;28;20039;-86
2024/04/13 12:06:12;;;;;;;3.42;2.60;;;;;;;;;;4997108;28;20034;-84
2024/04/13 12:08:38;;;;;;;11.55;3.65;;;;;;;;;;4992199;28;20053;-88
2024/04/13 12:11:04;;;;;;;5.25;2.92;;;;;;;;;;4984248;28;20042;-87
2024/04/13 12:13:30;;;;;;;5.25;2.60;;;;;;;;;;4977159;28;20027;-85
2024/04/13 12:15:56;;;;;;;5.20;2.92;;;;;;;;;;4974127;28;20022;-88
2024/04/13 12:18:22;;;;;;;7.13;3.10;;;;;;;;;;4976520;28;20027;-86
2024/04/13 12:20:57;;;;;;;3.70;2.20;;;;;;;;;;4984314;28;20027;-88
2024/04/13 12:23:27;;;;;;;2.50;2.25;;;;;;;;;;4991150;28;20043;-86
2024/04/13 12:25:53;;;;;;;6.65;3.50;;;;;;;;;;4989483;28;20062;-85
2024/04/13 12:28:19;;;;;;;4.68;3.50;;;;;;;;;;5008970;28;20094;-85
2024/04/13 12:30:45;;;;;;;9.05;5.18;;;;;;;;;;4979357;28;20032;-87
2024/04/13 12:33:11;;;;;;;11.68;5.07;;;;;;;;;;4991498;28;20034;-82
2024/04/13 12:35:37;;;;;;;7.28;4.38;;;;;;;;;;4985759;28;20051;-86
2024/04/13 12:38:02;;;;;;;6.35;3.53;;;;;;;;;;4980036;28;20019;-86
2024/04/13 12:40:29;;;;;;;4.57;3.30;;;;;;;;;;4981529;28;20050;-86
2024/04/13 12:42:55;;;;;;;2.30;2.13;;;;;;;;;;4976867;28;20031;-87
2024/04/13 12:45:21;;;;;;;3.63;2.40;;;;;;;;;;4984820;28;20102;-86
2024/04/13 12:47:47;;;;;;;6.43;3.30;;;;;;;;;;4984652;28;20038;-83
2024/04/13 12:50:13;;;;;;;4.32;2.50;;;;;;;;;;4966003;28;20031;-82
2024/04/13 12:52:39;;;;;;;5.28;2.40;;;;;;;;;;4957836;28;20039;-78
2024/04/13 12:55:04;;;;;;;4.70;2.25;;;;;;;;;;4953659;29;20031;-85
2024/04/13 12:57:30;;;;;;;2.40;2.17;;;;;;;;;;4990255;28;20085;-86
2024/04/13 12:59:56;;;;;;;5.53;2.50;;;;;;;;;;5005181;28;20010;-85
2024/04/13 13:02:22;;;;;;;3.15;2.45;;;;;;;;;;5012390;28;20038;-83
2024/04/13 13:04:48;;;;;;;2.70;2.10;;;;;;;;;;4981411;28;20051;-82
2024/04/13 13:07:17;;;;;;;3.20;2.50;;;;;;;;;;4999865;28;20035;-83
2024/04/13 13:09:43;;;;;;;1.83;1.73;;;;;;;;;;4994305;28;20042;-84
2024/04/13 13:12:09;;;;;;;5.32;2.00;;;;;;;;;;4997633;28;20074;-83
2024/04/13 13:14:35;;;;;;;5.00;2.20;;;;;;;;;;4998064;28;20047;-83
2024/04/13 13:17:01;;;;;;;2.85;2.20;;;;;;;;;;4976852;28;20047;-83
2024/04/13 13:19:29;;;;;;;6.18;2.15;;;;;;;;;;5004653;28;20042;-82
2024/04/13 13:21:55;;;;;;;5.20;2.58;;;;;;;;;;5005681;28;20188;-83
2024/04/13 13:24:21;;;;;;;3.75;2.63;;;;;;;;;;4986249;28;20055;-84
2024/04/13 13:26:47;;;;;;;6.57;2.60;;;;;;;;;;4990426;28;20027;-82
2024/04/13 13:29:13;;;;;;;2.13;1.90;;;;;;;;;;4978252;28;20077;-82
2024/04/13 13:31:41;;;;;;;4.63;2.05;;;;;;;;;;4990452;28;20022;-85
2024/04/13 13:34:07;;;;;;;2.88;2.05;;;;;;;;;;5004070;28;20046;-82
2024/04/13 13:36:33;;;;;;;2.88;1.90;;;;;;;;;;4976950;28;20138;-84
2024/04/13 13:38:59;;;;;;;2.90;2.28;;;;;;;;;;5008015;28;20089;-83
2024/04/13 13:41:26;;;;;;;10.85;2.10;;;;;;;;;;5003072;28;20030;-83
2024/04/13 13:44:11;;;;;;;3.17;1.80;;;;;;;;;;4978024;28;20049;-86
2024/04/13 13:47:00;;;;;;;2.42;1.75;;;;;;;;;;4996838;28;20042;-82
2024/04/13 13:49:26;;;;;;;1.90;1.80;;;;;;;;;;5009385;28;20035;-84
2024/04/13 13:51:52;;;;;;;2.33;1.70;;;;;;;;;;4995744;28;20034;-83
2024/04/13 13:54:18;;;;;;;2.70;1.65;;;;;;;;;;4995452;28;20015;-83
2024/04/13 13:56:44;;;;;;;5.18;2.80;;;;;;;;;;4983201;28;20122;-84
2024/04/13 13:59:10;;;;;;;3.22;1.83;;;;;;;;;;4990110;28;20062;-83
2024/04/13 14:01:36;;;;;;;2.08;1.88;;;;;;;;;;4981002;28;20039;-84
2024/04/13 14:04:02;;;;;;;2.00;1.73;;;;;;;;;;4989972;28;20034;-83
2024/04/13 14:06:28;;;;;;;4.38;1.85;;;;;;;;;;5004154;28;20085;-82
2024/04/13 14:08:54;;;;;;;3.17;2.05;;;;;;;;;;4989194;28;20038;-85
2024/04/13 14:11:20;;;;;;;2.88;1.77;;;;;;;;;;4984898;28;20396;-84
2024/04/13 14:13:46;;;;;;;6.18;1.98;;;;;;;;;;4990393;28;20026;-84
2024/04/13 14:16:16;;;;;;;2.70;2.50;;;;;;;;;;4999017;28;20034;-84
2024/04/13 14:18:42;;;;;;;2.03;1.85;;;;;;;;;;4998559;28;20039;-84
2024/04/13 14:21:07;;;;;;;4.25;3.40;;;;;;;;;;4979861;28;20035;-81
2024/04/13 14:23:34;;;;;;;3.30;1.95;;;;;;;;;;5006256;28;20512;-84
2024/04/13 14:25:59;;;;;;;3.70;2.22;;;;;;;;;;5008720;28;20066;-86
2024/04/13 14:28:26;;;;;;;3.85;2.47;;;;;;;;;;4983956;28;20047;-85
2024/04/13 14:30:52;;;;;;;4.25;2.60;;;;;;;;;;5013992;28;20049;-85
2024/04/13 14:33:17;;;;;;;7.15;3.70;;;;;;;;;;5010259;28;20049;-84
2024/04/13 14:35:43;;;;;;;4.53;3.10;;;;;;;;;;5010570;28;20073;-83
2024/04/13 14:38:10;;;;;;;5.65;3.10;;;;;;;;;;5008160;28;20058;-83
2024/04/13 14:40:36;;;;;;;9.27;4.20;;;;;;;;;;5012542;28;20010;-84